^^
Meteo Knjazevac Station Historical Data
Daily Summary for June 28, 2022 Units:  Both    English   Metric
Daily Weekly Monthly Yearly Custom
  High: Low: Average:
Temperature: 90.5 °F /  32.5 °C 59.4 °F /  15.2 °C 72 °F /  22.2 °C
Dew Point: 71.3 °F /  21.8 °C 58.6 °F /  14.8 °C 64.5 °F /  18.1 °C
Humidity: 99% 50% 80%
Wind Speed: 5mph /  8km/h - 1.3mph /  2.1km/h
Wind Gust: 13mph /  20.9km/h - -
Wind- - SW
Pressure: 30.12 in /  1019.9 hPa 30.06 in /  1017.8 hPa -
Precipitation: 0.00 in /  0 mm    
Historical Graphs
 
 
Tabular Data for June 28, 2022
Time Temperature Dew Point Pressure Wind Wind Speed Wind Gust Humidity Rainfall Rate (Hourly) solar Conditions
00:10 66.4 °F /  19.1 °C 63.4 °F /  17.4 °C 30.11in /  1019.5hPa West 1mph /  1.6km/h 2mph /  3.2km/h 90% 0.00in /  0mm 0 W/m2
00:20 66 °F /  18.9 °C 63 °F /  17.2 °C 30.11in /  1019.5hPa WNW 1mph /  1.6km/h 2mph /  3.2km/h 90% 0.00in /  0mm 0 W/m2
00:30 65.5 °F /  18.6 °C 62.8 °F /  17.1 °C 30.11in /  1019.5hPa WSW 1mph /  1.6km/h 3mph /  4.8km/h 91% 0.00in /  0mm 0 W/m2
00:40 65.1 °F /  18.4 °C 62.4 °F /  16.9 °C 30.11in /  1019.5hPa West 2mph /  3.2km/h 2mph /  3.2km/h 91% 0.00in /  0mm 0 W/m2
00:50 64.8 °F /  18.2 °C 62.7 °F /  17.1 °C 30.10in /  1019.2hPa West 1mph /  1.6km/h 3mph /  4.8km/h 93% 0.00in /  0mm 0 W/m2
01:00 64.6 °F /  18.1 °C 62.5 °F /  16.9 °C 30.10in /  1019.2hPa West 2mph /  3.2km/h 4mph /  6.4km/h 93% 0.00in /  0mm 0 W/m2
01:10 64.4 °F /  18 °C 62.3 °F /  16.8 °C 30.10in /  1019.2hPa WSW 1mph /  1.6km/h 4mph /  6.4km/h 93% 0.00in /  0mm 0 W/m2
01:20 64.1 °F /  17.8 °C 62 °F /  16.7 °C 30.11in /  1019.5hPa WNW 1mph /  1.6km/h 3mph /  4.8km/h 93% 0.00in /  0mm 0 W/m2
01:30 64 °F /  17.8 °C 62 °F /  16.7 °C 30.10in /  1019.2hPa NW 1mph /  1.6km/h 2mph /  3.2km/h 93% 0.00in /  0mm 0 W/m2
01:40 63.7 °F /  17.6 °C 61.9 °F /  16.6 °C 30.10in /  1019.2hPa SW 1mph /  1.6km/h 3mph /  4.8km/h 94% 0.00in /  0mm 0 W/m2
01:50 63.2 °F /  17.3 °C 61.4 °F /  16.3 °C 30.11in /  1019.5hPa West 1mph /  1.6km/h 3mph /  4.8km/h 94% 0.00in /  0mm 0 W/m2
02:00 63 °F /  17.2 °C 61.2 °F /  16.2 °C 30.10in /  1019.2hPa Calm   3mph /  4.8km/h 94% 0.00in /  0mm 0 W/m2
02:20 62.4 °F /  16.9 °C 61 °F /  16.1 °C 30.11in /  1019.5hPa WNW 1mph /  1.6km/h 4mph /  6.4km/h 95% 0.00in /  0mm 0 W/m2
02:30 62.4 °F /  16.9 °C 61 °F /  16.1 °C 30.11in /  1019.5hPa West 2mph /  3.2km/h 4mph /  6.4km/h 95% 0.00in /  0mm 0 W/m2
02:40 62.2 °F /  16.8 °C 60.8 °F /  16 °C 30.11in /  1019.5hPa WNW 1mph /  1.6km/h 2mph /  3.2km/h 95% 0.00in /  0mm 0 W/m2
02:50 62.1 °F /  16.7 °C 60.6 °F /  15.9 °C 30.10in /  1019.2hPa Calm   2mph /  3.2km/h 95% 0.00in /  0mm 0 W/m2
03:20 61.5 °F /  16.4 °C 60.1 °F /  15.6 °C 30.10in /  1019.2hPa NNW 1mph /  1.6km/h 2mph /  3.2km/h 95% 0.00in /  0mm 0 W/m2
03:40 61 °F /  16.1 °C 59.5 °F /  15.3 °C 30.10in /  1019.2hPa West 2mph /  3.2km/h 4mph /  6.4km/h 95% 0.00in /  0mm 0 W/m2
03:50 60.8 °F /  16 °C 59.7 °F /  15.4 °C 30.10in /  1019.2hPa WSW 1mph /  1.6km/h 4mph /  6.4km/h 96% 0.00in /  0mm 0 W/m2
04:20 60.3 °F /  15.7 °C 59.1 °F /  15.1 °C 30.10in /  1019.2hPa West 1mph /  1.6km/h 3mph /  4.8km/h 96% 0.00in /  0mm 0 W/m2
04:30 60.1 °F /  15.6 °C 58.9 °F /  14.9 °C 30.10in /  1019.2hPa West 2mph /  3.2km/h 3mph /  4.8km/h 96% 0.00in /  0mm 0 W/m2
04:40 59.7 °F /  15.4 °C 58.6 °F /  14.8 °C 30.10in /  1019.2hPa West 1mph /  1.6km/h 2mph /  3.2km/h 96% 0.00in /  0mm 0 W/m2
05:10 59.5 °F /  15.3 °C 59 °F /  15 °C 30.11in /  1019.5hPa WNW 2mph /  3.2km/h 3mph /  4.8km/h 98% 0.00in /  0mm 12 W/m2
05:20 59.5 °F /  15.3 °C 59 °F /  15 °C 30.11in /  1019.5hPa West 1mph /  1.6km/h 3mph /  4.8km/h 98% 0.00in /  0mm 20 W/m2
05:30 59.5 °F /  15.3 °C 59.3 °F /  15.2 °C 30.11in /  1019.5hPa West 2mph /  3.2km/h 3mph /  4.8km/h 99% 0.00in /  0mm 27 W/m2
05:40 59.4 °F /  15.2 °C 58.8 °F /  14.9 °C 30.11in /  1019.5hPa WSW 1mph /  1.6km/h 2mph /  3.2km/h 98% 0.00in /  0mm 36 W/m2
05:50 59.5 °F /  15.3 °C 59.3 °F /  15.2 °C 30.12in /  1019.9hPa WNW 1mph /  1.6km/h 3mph /  4.8km/h 99% 0.00in /  0mm 44 W/m2
06:00 59.5 °F /  15.3 °C 59.3 °F /  15.2 °C 30.12in /  1019.9hPa NW 1mph /  1.6km/h 2mph /  3.2km/h 99% 0.00in /  0mm 50 W/m2
06:10 59.7 °F /  15.4 °C 59.2 °F /  15.1 °C 30.12in /  1019.9hPa Calm   2mph /  3.2km/h 98% 0.00in /  0mm 106 W/m2
06:20 59.7 °F /  15.4 °C 59.4 °F /  15.2 °C 30.12in /  1019.9hPa Calm   2mph /  3.2km/h 99% 0.00in /  0mm 130 W/m2
06:40 60.4 °F /  15.8 °C 60.2 °F /  15.7 °C 30.12in /  1019.9hPa Calm   2mph /  3.2km/h 99% 0.00in /  0mm 181 W/m2
06:50 60.8 °F /  16 °C 60.5 °F /  15.8 °C 30.12in /  1019.9hPa Calm   2mph /  3.2km/h 99% 0.00in /  0mm 209 W/m2
07:00 61.3 °F /  16.3 °C 61.1 °F /  16.2 °C 30.12in /  1019.9hPa NNW 1mph /  1.6km/h 2mph /  3.2km/h 99% 0.00in /  0mm 238 W/m2
07:10 61.9 °F /  16.6 °C 61.6 °F /  16.4 °C 30.12in /  1019.9hPa NW 1mph /  1.6km/h 2mph /  3.2km/h 99% 0.00in /  0mm 268 W/m2
07:20 62.4 °F /  16.9 °C 61.8 °F /  16.6 °C 30.12in /  1019.9hPa Calm   5mph /  8km/h 98% 0.00in /  0mm 299 W/m2
07:30 63.1 °F /  17.3 °C 62 °F /  16.7 °C 30.12in /  1019.9hPa Calm   2mph /  3.2km/h 96% 0.00in /  0mm 328 W/m2
07:40 64 °F /  17.8 °C 62.6 °F /  17 °C 30.12in /  1019.9hPa NW 1mph /  1.6km/h 3mph /  4.8km/h 95% 0.00in /  0mm 361 W/m2
07:50 64.8 °F /  18.2 °C 63 °F /  17.2 °C 30.12in /  1019.9hPa Calm   3mph /  4.8km/h 94% 0.00in /  0mm 394 W/m2
08:10 66.2 °F /  19 °C 63.2 °F /  17.3 °C 30.12in /  1019.9hPa NW 2mph /  3.2km/h 5mph /  8km/h 90% 0.00in /  0mm 472 W/m2
08:20 67.8 °F /  19.9 °C 64.8 °F /  18.2 °C 30.12in /  1019.9hPa NW 1mph /  1.6km/h 3mph /  4.8km/h 90% 0.00in /  0mm 504 W/m2
08:30 69.8 °F /  21 °C 65.1 °F /  18.4 °C 30.12in /  1019.9hPa SW 1mph /  1.6km/h 2mph /  3.2km/h 85% 0.00in /  0mm 536 W/m2
08:40 71.8 °F /  22.1 °C 66.3 °F /  19.1 °C 30.12in /  1019.9hPa Calm   6mph /  9.7km/h 83% 0.00in /  0mm 565 W/m2
08:50 73.2 °F /  22.9 °C 66.7 °F /  19.3 °C 30.12in /  1019.9hPa West 1mph /  1.6km/h 3mph /  4.8km/h 80% 0.00in /  0mm 599 W/m2
09:10 76.1 °F /  24.5 °C 67.6 °F /  19.8 °C 30.11in /  1019.5hPa SSW 1mph /  1.6km/h 3mph /  4.8km/h 75% 0.00in /  0mm 653 W/m2
09:20 77.4 °F /  25.2 °C 68.4 °F /  20.2 °C 30.11in /  1019.5hPa North 1mph /  1.6km/h 3mph /  4.8km/h 74% 0.00in /  0mm 680 W/m2
09:40 79.2 °F /  26.2 °C 67.7 °F /  19.8 °C 30.11in /  1019.5hPa SE 1mph /  1.6km/h 5mph /  8km/h 68% 0.00in /  0mm 736 W/m2
09:50 79.9 °F /  26.6 °C 67.9 °F /  19.9 °C 30.11in /  1019.5hPa East 3mph /  4.8km/h 7mph /  11.3km/h 67% 0.00in /  0mm 763 W/m2
10:00 80.4 °F /  26.9 °C 67.1 °F /  19.5 °C 30.11in /  1019.5hPa East 1mph /  1.6km/h 6mph /  9.7km/h 64% 0.00in /  0mm 785 W/m2
10:10 81.3 °F /  27.4 °C 67.5 °F /  19.7 °C 30.11in /  1019.5hPa NE 2mph /  3.2km/h 7mph /  11.3km/h 63% 0.00in /  0mm 808 W/m2
10:20 82.1 °F /  27.8 °C 68.2 °F /  20.1 °C 30.11in /  1019.5hPa NNE 1mph /  1.6km/h 5mph /  8km/h 63% 0.00in /  0mm 828 W/m2
10:30 82.9 °F /  28.3 °C 69.5 °F /  20.8 °C 30.10in /  1019.2hPa NE 2mph /  3.2km/h 5mph /  8km/h 64% 0.00in /  0mm 850 W/m2
10:40 83.8 °F /  28.8 °C 69.4 °F /  20.8 °C 30.10in /  1019.2hPa North 2mph /  3.2km/h 5mph /  8km/h 62% 0.00in /  0mm 821 W/m2
10:50 84.6 °F /  29.2 °C 69.1 °F /  20.6 °C 30.10in /  1019.2hPa North 2mph /  3.2km/h 6mph /  9.7km/h 60% 0.00in /  0mm 837 W/m2
11:00 85.3 °F /  29.6 °C 71.3 °F /  21.8 °C 30.10in /  1019.2hPa North 2mph /  3.2km/h 6mph /  9.7km/h 63% 0.00in /  0mm 895 W/m2
11:10 85.8 °F /  29.9 °C 69.8 °F /  21 °C 30.10in /  1019.2hPa North 5mph /  8km/h 8mph /  12.9km/h 59% 0.00in /  0mm 908 W/m2
11:30 86.9 °F /  30.5 °C 70.8 °F /  21.6 °C 30.09in /  1018.8hPa NNE 2mph /  3.2km/h 7mph /  11.3km/h 59% 0.00in /  0mm 936 W/m2
11:40 86.7 °F /  30.4 °C 70.2 °F /  21.2 °C 30.09in /  1018.8hPa North 2mph /  3.2km/h 6mph /  9.7km/h 58% 0.00in /  0mm 945 W/m2
12:00 87.4 °F /  30.8 °C 70.3 °F /  21.3 °C 30.08in /  1018.5hPa NNW 1mph /  1.6km/h 7mph /  11.3km/h 57% 0.00in /  0mm 653 W/m2
12:10 88 °F /  31.1 °C 69.3 °F /  20.7 °C 30.08in /  1018.5hPa NNW 3mph /  4.8km/h 8mph /  12.9km/h 54% 0.00in /  0mm 465 W/m2
12:20 88.5 °F /  31.4 °C 70.3 °F /  21.3 °C 30.08in /  1018.5hPa NNW 2mph /  3.2km/h 8mph /  12.9km/h 55% 0.00in /  0mm 388 W/m2
12:30 89.2 °F /  31.8 °C 70.4 °F /  21.3 °C 30.08in /  1018.5hPa NNW 3mph /  4.8km/h 9mph /  14.5km/h 54% 0.00in /  0mm 866 W/m2
12:40 89.3 °F /  31.8 °C 69.3 °F /  20.7 °C 30.08in /  1018.5hPa WNW 1mph /  1.6km/h 9mph /  14.5km/h 52% 0.00in /  0mm 428 W/m2
12:50 89.1 °F /  31.7 °C 70.3 °F /  21.3 °C 30.08in /  1018.5hPa Calm   7mph /  11.3km/h 54% 0.00in /  0mm 232 W/m2
13:00 89.1 °F /  31.7 °C 70.3 °F /  21.3 °C 30.08in /  1018.5hPa NNW 5mph /  8km/h 7mph /  11.3km/h 54% 0.00in /  0mm 318 W/m2
13:10 88.5 °F /  31.4 °C 69.2 °F /  20.7 °C 30.08in /  1018.5hPa Calm   6mph /  9.7km/h 53% 0.00in /  0mm 304 W/m2
13:20 88.2 °F /  31.2 °C 68.9 °F /  20.5 °C 30.06in /  1017.8hPa NW 1mph /  1.6km/h 5mph /  8km/h 53% 0.00in /  0mm 470 W/m2
13:30 88.2 °F /  31.2 °C 70 °F /  21.1 °C 30.06in /  1017.8hPa NNE 2mph /  3.2km/h 8mph /  12.9km/h 55% 0.00in /  0mm 612 W/m2
13:50 89.8 °F /  32.1 °C 70.4 °F /  21.3 °C 30.06in /  1017.8hPa North 2mph /  3.2km/h 13mph /  20.9km/h 53% 0.00in /  0mm 895 W/m2
14:00 90 °F /  32.2 °C 70 °F /  21.1 °C 30.06in /  1017.8hPa NNE 2mph /  3.2km/h 12mph /  19.3km/h 52% 0.00in /  0mm 644 W/m2
14:10 90.5 °F /  32.5 °C 70.5 °F /  21.4 °C 30.06in /  1017.8hPa NNE 3mph /  4.8km/h 11mph /  17.7km/h 52% 0.00in /  0mm 820 W/m2
14:20 90.5 °F /  32.5 °C 69.3 °F /  20.7 °C 30.06in /  1017.8hPa North 1mph /  1.6km/h 7mph /  11.3km/h 50% 0.00in /  0mm 809 W/m2
Knjazevac, Serbia
Compliments of Weather Underground - 2 mb